sensor_id;sensor_type;location;lat;lon;timestamp;pressure;altitude;pressure_sealevel;temperature;humidity
4981;BME280;2507;50.392;7.482;2022-08-19T00:01:25;100461.50;;;22.23;59.68
4981;BME280;2507;50.392;7.482;2022-08-19T00:03:50;100467.41;;;22.18;59.83
4981;BME280;2507;50.392;7.482;2022-08-19T00:06:16;100473.31;;;22.14;60.12
4981;BME280;2507;50.392;7.482;2022-08-19T00:08:42;100477.19;;;22.11;60.02
4981;BME280;2507;50.392;7.482;2022-08-19T00:11:08;100476.44;;;22.17;60.08
4981;BME280;2507;50.392;7.482;2022-08-19T00:13:33;100474.41;;;22.19;60.00
4981;BME280;2507;50.392;7.482;2022-08-19T00:15:58;100483.63;;;22.17;60.23
4981;BME280;2507;50.392;7.482;2022-08-19T00:18:24;100470.44;;;22.30;59.73
4981;BME280;2507;50.392;7.482;2022-08-19T00:20:50;100480.94;;;22.31;59.30
4981;BME280;2507;50.392;7.482;2022-08-19T00:23:15;100485.28;;;22.33;59.29
4981;BME280;2507;50.392;7.482;2022-08-19T00:25:41;100490.19;;;22.14;58.87
4981;BME280;2507;50.392;7.482;2022-08-19T00:28:06;100495.34;;;21.87;60.60
4981;BME280;2507;50.392;7.482;2022-08-19T00:30:31;100488.06;;;21.81;60.26
4981;BME280;2507;50.392;7.482;2022-08-19T00:32:57;100484.25;;;21.75;60.91
4981;BME280;2507;50.392;7.482;2022-08-19T00:35:23;100487.22;;;21.80;60.30
4981;BME280;2507;50.392;7.482;2022-08-19T00:37:49;100489.81;;;21.88;60.78
4981;BME280;2507;50.392;7.482;2022-08-19T00:40:16;100483.00;;;21.86;60.94
4981;BME280;2507;50.392;7.482;2022-08-19T00:42:42;100468.97;;;21.84;61.17
4981;BME280;2507;50.392;7.482;2022-08-19T00:45:12;100469.91;;;21.76;61.46
4981;BME280;2507;50.392;7.482;2022-08-19T00:47:38;100464.66;;;21.83;61.09
4981;BME280;2507;50.392;7.482;2022-08-19T00:50:04;100460.69;;;21.79;61.54
4981;BME280;2507;50.392;7.482;2022-08-19T00:52:33;100450.66;;;21.81;61.17
4981;BME280;2507;50.392;7.482;2022-08-19T00:55:00;100461.97;;;21.68;62.18
4981;BME280;2507;50.392;7.482;2022-08-19T00:57:34;100459.56;;;21.73;62.02
4981;BME280;2507;50.392;7.482;2022-08-19T01:00:00;100465.69;;;21.82;61.68
4981;BME280;2507;50.392;7.482;2022-08-19T01:02:28;100457.09;;;21.86;61.35
4981;BME280;2507;50.392;7.482;2022-08-19T01:04:54;100464.66;;;21.83;61.78
4981;BME280;2507;50.392;7.482;2022-08-19T01:07:19;100461.63;;;21.86;61.53
4981;BME280;2507;50.392;7.482;2022-08-19T01:09:45;100467.81;;;21.86;61.38
4981;BME280;2507;50.392;7.482;2022-08-19T01:12:11;100465.97;;;22.01;61.24
4981;BME280;2507;50.392;7.482;2022-08-19T01:14:38;100468.91;;;22.06;60.86
4981;BME280;2507;50.392;7.482;2022-08-19T01:17:05;100468.91;;;21.92;61.20
4981;BME280;2507;50.392;7.482;2022-08-19T01:19:34;100462.03;;;21.75;61.43
4981;BME280;2507;50.392;7.482;2022-08-19T01:22:06;100462.16;;;21.67;62.54
4981;BME280;2507;50.392;7.482;2022-08-19T01:24:34;100458.56;;;21.74;62.21
4981;BME280;2507;50.392;7.482;2022-08-19T01:26:59;100460.84;;;21.77;62.13
4981;BME280;2507;50.392;7.482;2022-08-19T01:29:25;100456.84;;;21.81;62.00
4981;BME280;2507;50.392;7.482;2022-08-19T01:31:50;100462.91;;;21.90;61.44
4981;BME280;2507;50.392;7.482;2022-08-19T01:34:18;100455.81;;;21.82;62.02
4981;BME280;2507;50.392;7.482;2022-08-19T01:36:45;100445.94;;;21.68;62.41
4981;BME280;2507;50.392;7.482;2022-08-19T01:39:16;100456.78;;;21.52;62.76
4981;BME280;2507;50.392;7.482;2022-08-19T01:41:42;100451.63;;;21.51;62.64
4981;BME280;2507;50.392;7.482;2022-08-19T01:44:09;100456.97;;;21.51;62.97
4981;BME280;2507;50.392;7.482;2022-08-19T01:46:35;100450.88;;;21.57;62.47
4981;BME280;2507;50.392;7.482;2022-08-19T01:49:02;100447.25;;;21.35;63.44
4981;BME280;2507;50.392;7.482;2022-08-19T01:51:27;100456.25;;;21.19;63.74
4981;BME280;2507;50.392;7.482;2022-08-19T01:53:52;100455.53;;;21.25;64.01
4981;BME280;2507;50.392;7.482;2022-08-19T01:56:18;100458.03;;;21.27;64.07
4981;BME280;2507;50.392;7.482;2022-08-19T01:58:51;100449.38;;;21.25;64.06
4981;BME280;2507;50.392;7.482;2022-08-19T02:01:18;100446.16;;;21.29;63.88
4981;BME280;2507;50.392;7.482;2022-08-19T02:03:44;100446.72;;;21.25;64.05
4981;BME280;2507;50.392;7.482;2022-08-19T02:06:11;100441.56;;;21.23;64.31
4981;BME280;2507;50.392;7.482;2022-08-19T02:08:37;100443.56;;;21.21;64.19
4981;BME280;2507;50.392;7.482;2022-08-19T02:11:04;100439.31;;;21.12;64.49
4981;BME280;2507;50.392;7.482;2022-08-19T02:13:30;100442.88;;;21.05;64.81
4981;BME280;2507;50.392;7.482;2022-08-19T02:15:55;100436.44;;;20.91;65.16
4981;BME280;2507;50.392;7.482;2022-08-19T02:18:20;100435.88;;;20.81;65.67
4981;BME280;2507;50.392;7.482;2022-08-19T02:20:46;100431.03;;;20.77;65.38
4981;BME280;2507;50.392;7.482;2022-08-19T02:23:15;100438.75;;;20.72;65.97
4981;BME280;2507;50.392;7.482;2022-08-19T02:25:43;100429.91;;;20.71;66.06
4981;BME280;2507;50.392;7.482;2022-08-19T02:28:09;100444.19;;;20.78;65.70
4981;BME280;2507;50.392;7.482;2022-08-19T02:30:34;100444.34;;;20.85;65.40
4981;BME280;2507;50.392;7.482;2022-08-19T02:32:59;100448.31;;;20.89;65.34
4981;BME280;2507;50.392;7.482;2022-08-19T02:35:25;100439.53;;;20.80;65.50
4981;BME280;2507;50.392;7.482;2022-08-19T02:37:50;100434.91;;;20.74;65.97
4981;BME280;2507;50.392;7.482;2022-08-19T02:40:35;100435.03;;;20.58;66.66
4981;BME280;2507;50.392;7.482;2022-08-19T02:43:02;100441.97;;;20.67;66.27
4981;BME280;2507;50.392;7.482;2022-08-19T02:45:32;100449.03;;;20.83;65.48
4981;BME280;2507;50.392;7.482;2022-08-19T02:47:58;100449.31;;;20.88;65.06
4981;BME280;2507;50.392;7.482;2022-08-19T02:50:23;100456.38;;;20.81;65.48
4981;BME280;2507;50.392;7.482;2022-08-19T02:52:48;100461.19;;;20.85;65.39
4981;BME280;2507;50.392;7.482;2022-08-19T02:55:13;100462.38;;;20.83;65.63
4981;BME280;2507;50.392;7.482;2022-08-19T02:57:39;100457.50;;;20.86;65.56
4981;BME280;2507;50.392;7.482;2022-08-19T03:00:06;100459.78;;;20.89;65.73
4981;BME280;2507;50.392;7.482;2022-08-19T03:02:31;100460.81;;;20.88;65.67
4981;BME280;2507;50.392;7.482;2022-08-19T03:04:57;100457.13;;;20.89;65.29
4981;BME280;2507;50.392;7.482;2022-08-19T03:07:22;100458.44;;;20.93;65.21
4981;BME280;2507;50.392;7.482;2022-08-19T03:09:47;100461.81;;;20.87;65.53
4981;BME280;2507;50.392;7.482;2022-08-19T03:12:13;100465.41;;;20.80;66.00
4981;BME280;2507;50.392;7.482;2022-08-19T03:14:38;100460.94;;;20.72;66.29
4981;BME280;2507;50.392;7.482;2022-08-19T03:17:04;100462.06;;;20.78;66.22
4981;BME280;2507;50.392;7.482;2022-08-19T03:19:30;100472.47;;;20.87;65.90
4981;BME280;2507;50.392;7.482;2022-08-19T03:21:56;100479.97;;;20.92;65.45
4981;BME280;2507;50.392;7.482;2022-08-19T03:24:23;100481.63;;;20.93;65.36
4981;BME280;2507;50.392;7.482;2022-08-19T03:26:52;100474.16;;;20.88;65.58
4981;BME280;2507;50.392;7.482;2022-08-19T03:29:18;100477.59;;;20.74;66.02
4981;BME280;2507;50.392;7.482;2022-08-19T03:31:44;100485.72;;;20.81;65.87
4981;BME280;2507;50.392;7.482;2022-08-19T03:34:14;100470.59;;;20.73;65.69
4981;BME280;2507;50.392;7.482;2022-08-19T03:36:40;100483.75;;;20.44;67.07
4981;BME280;2507;50.392;7.482;2022-08-19T03:39:06;100484.44;;;20.46;67.38
4981;BME280;2507;50.392;7.482;2022-08-19T03:41:40;100480.69;;;20.55;66.81
4981;BME280;2507;50.392;7.482;2022-08-19T03:44:05;100485.09;;;20.48;67.09
4981;BME280;2507;50.392;7.482;2022-08-19T03:46:32;100488.78;;;20.39;67.51
4981;BME280;2507;50.392;7.482;2022-08-19T03:49:00;100487.66;;;20.33;67.84
4981;BME280;2507;50.392;7.482;2022-08-19T03:51:30;100490.13;;;20.43;67.69
4981;BME280;2507;50.392;7.482;2022-08-19T03:53:57;100483.72;;;20.52;67.08
4981;BME280;2507;50.392;7.482;2022-08-19T03:56:23;100486.91;;;20.48;66.92
4981;BME280;2507;50.392;7.482;2022-08-19T03:58:51;100488.09;;;20.45;67.00
4981;BME280;2507;50.392;7.482;2022-08-19T04:01:19;100485.09;;;20.48;67.43
4981;BME280;2507;50.392;7.482;2022-08-19T04:03:45;100476.72;;;20.51;67.25
4981;BME280;2507;50.392;7.482;2022-08-19T04:06:17;100493.84;;;20.57;66.81
4981;BME280;2507;50.392;7.482;2022-08-19T04:08:44;100494.91;;;20.48;67.03
4981;BME280;2507;50.392;7.482;2022-08-19T04:11:12;100489.94;;;20.45;67.26
4981;BME280;2507;50.392;7.482;2022-08-19T04:13:38;100502.44;;;20.44;67.37
4981;BME280;2507;50.392;7.482;2022-08-19T04:16:04;100496.41;;;20.50;66.99
4981;BME280;2507;50.392;7.482;2022-08-19T04:18:30;100504.78;;;20.39;67.30
4981;BME280;2507;50.392;7.482;2022-08-19T04:20:56;100510.47;;;20.36;67.48
4981;BME280;2507;50.392;7.482;2022-08-19T04:23:22;100506.81;;;20.37;67.07
4981;BME280;2507;50.392;7.482;2022-08-19T04:25:47;100502.81;;;20.33;67.34
4981;BME280;2507;50.392;7.482;2022-08-19T04:28:13;100509.47;;;20.37;67.25
4981;BME280;2507;50.392;7.482;2022-08-19T04:30:44;100493.66;;;20.36;67.46
4981;BME280;2507;50.392;7.482;2022-08-19T04:33:11;100510.47;;;20.36;67.75
4981;BME280;2507;50.392;7.482;2022-08-19T04:35:39;100508.13;;;20.41;67.57
4981;BME280;2507;50.392;7.482;2022-08-19T04:38:05;100509.63;;;20.44;67.73
4981;BME280;2507;50.392;7.482;2022-08-19T04:40:31;100515.59;;;20.46;67.87
4981;BME280;2507;50.392;7.482;2022-08-19T04:43:15;100517.56;;;20.52;67.93
4981;BME280;2507;50.392;7.482;2022-08-19T04:45:43;100525.19;;;20.55;67.80
4981;BME280;2507;50.392;7.482;2022-08-19T04:48:08;100528.72;;;20.55;68.19
4981;BME280;2507;50.392;7.482;2022-08-19T04:50:35;100528.50;;;20.65;67.82
4981;BME280;2507;50.392;7.482;2022-08-19T04:53:00;100526.44;;;20.75;67.50
4981;BME280;2507;50.392;7.482;2022-08-19T04:55:26;100520.94;;;20.76;67.53
4981;BME280;2507;50.392;7.482;2022-08-19T04:57:51;100523.84;;;20.89;67.13
4981;BME280;2507;50.392;7.482;2022-08-19T05:00:17;100529.75;;;21.07;66.58
4981;BME280;2507;50.392;7.482;2022-08-19T05:02:42;100529.47;;;21.25;66.19
4981;BME280;2507;50.392;7.482;2022-08-19T05:05:08;100534.44;;;21.51;64.78
4981;BME280;2507;50.392;7.482;2022-08-19T05:07:34;100536.94;;;21.67;63.78
4981;BME280;2507;50.392;7.482;2022-08-19T05:09:59;100534.75;;;21.70;63.49
4981;BME280;2507;50.392;7.482;2022-08-19T05:12:25;100541.84;;;21.78;63.09
4981;BME280;2507;50.392;7.482;2022-08-19T05:14:51;100537.84;;;21.82;63.69
4981;BME280;2507;50.392;7.482;2022-08-19T05:17:17;100527.50;;;21.79;62.97
4981;BME280;2507;50.392;7.482;2022-08-19T05:19:42;100526.25;;;21.67;63.36
4981;BME280;2507;50.392;7.482;2022-08-19T05:22:26;100522.56;;;21.68;64.14
4981;BME280;2507;50.392;7.482;2022-08-19T05:25:01;100525.53;;;21.58;63.97
4981;BME280;2507;50.392;7.482;2022-08-19T05:27:27;100534.63;;;21.64;64.21
4981;BME280;2507;50.392;7.482;2022-08-19T05:29:52;100534.34;;;21.96;63.14
4981;BME280;2507;50.392;7.482;2022-08-19T05:32:17;100525.56;;;22.31;61.78
4981;BME280;2507;50.392;7.482;2022-08-19T05:34:42;100522.88;;;22.60;60.97
4981;BME280;2507;50.392;7.482;2022-08-19T05:37:08;100522.59;;;22.70;60.30
4981;BME280;2507;50.392;7.482;2022-08-19T05:39:35;100527.25;;;22.82;60.19
4981;BME280;2507;50.392;7.482;2022-08-19T05:42:04;100522.34;;;22.86;59.96
4981;BME280;2507;50.392;7.482;2022-08-19T05:44:34;100525.13;;;23.13;59.12
4981;BME280;2507;50.392;7.482;2022-08-19T05:47:02;100521.00;;;23.32;58.85
4981;BME280;2507;50.392;7.482;2022-08-19T05:49:28;100517.16;;;23.41;58.67
4981;BME280;2507;50.392;7.482;2022-08-19T05:51:54;100519.56;;;23.57;58.26
4981;BME280;2507;50.392;7.482;2022-08-19T05:54:21;100521.56;;;23.76;57.89
4981;BME280;2507;50.392;7.482;2022-08-19T05:56:48;100520.16;;;24.08;56.73
4981;BME280;2507;50.392;7.482;2022-08-19T05:59:16;100523.09;;;24.19;56.37
4981;BME280;2507;50.392;7.482;2022-08-19T06:01:43;100529.34;;;24.33;55.89
4981;BME280;2507;50.392;7.482;2022-08-19T06:04:09;100523.94;;;24.67;54.99
4981;BME280;2507;50.392;7.482;2022-08-19T06:06:35;100526.75;;;25.13;54.01
4981;BME280;2507;50.392;7.482;2022-08-19T06:09:03;100529.03;;;25.03;53.55
4981;BME280;2507;50.392;7.482;2022-08-19T06:11:40;100532.13;;;25.13;53.51
4981;BME280;2507;50.392;7.482;2022-08-19T06:14:21;100533.59;;;25.87;51.71
4981;BME280;2507;50.392;7.482;2022-08-19T06:16:48;100529.34;;;26.50;50.78
4981;BME280;2507;50.392;7.482;2022-08-19T06:19:15;100531.25;;;26.37;50.45
4981;BME280;2507;50.392;7.482;2022-08-19T06:21:43;100534.06;;;26.61;49.42
4981;BME280;2507;50.392;7.482;2022-08-19T06:24:11;100527.03;;;26.54;49.91
4981;BME280;2507;50.392;7.482;2022-08-19T06:26:40;100518.28;;;26.65;49.99
4981;BME280;2507;50.392;7.482;2022-08-19T06:29:06;100526.59;;;26.63;49.86
4981;BME280;2507;50.392;7.482;2022-08-19T06:31:33;100530.38;;;27.00;48.90
4981;BME280;2507;50.392;7.482;2022-08-19T06:34:00;100542.59;;;27.34;48.13
4981;BME280;2507;50.392;7.482;2022-08-19T06:36:32;100543.91;;;27.49;48.09
4981;BME280;2507;50.392;7.482;2022-08-19T06:39:00;100544.13;;;27.16;48.64
4981;BME280;2507;50.392;7.482;2022-08-19T06:41:27;100558.88;;;26.76;49.74
4981;BME280;2507;50.392;7.482;2022-08-19T06:43:53;100556.53;;;27.31;49.27
4981;BME280;2507;50.392;7.482;2022-08-19T06:46:19;100554.28;;;27.52;48.48
4981;BME280;2507;50.392;7.482;2022-08-19T06:48:45;100558.31;;;27.37;48.24
4981;BME280;2507;50.392;7.482;2022-08-19T06:51:11;100561.53;;;27.20;49.55
4981;BME280;2507;50.392;7.482;2022-08-19T06:53:36;100575.84;;;27.52;48.68
4981;BME280;2507;50.392;7.482;2022-08-19T06:56:04;100572.88;;;27.36;48.41
4981;BME280;2507;50.392;7.482;2022-08-19T06:58:29;100577.00;;;27.63;48.61
4981;BME280;2507;50.392;7.482;2022-08-19T07:01:02;100577.00;;;27.63;48.45
4981;BME280;2507;50.392;7.482;2022-08-19T07:03:32;100584.09;;;27.33;49.43
4981;BME280;2507;50.392;7.482;2022-08-19T07:06:05;100581.78;;;27.30;49.76
4981;BME280;2507;50.392;7.482;2022-08-19T07:08:32;100584.69;;;28.33;47.58
4981;BME280;2507;50.392;7.482;2022-08-19T07:10:58;100592.44;;;28.05;48.08
4981;BME280;2507;50.392;7.482;2022-08-19T07:13:23;100591.38;;;27.57;48.75
4981;BME280;2507;50.392;7.482;2022-08-19T07:15:49;100601.28;;;27.94;48.43
4981;BME280;2507;50.392;7.482;2022-08-19T07:18:19;100603.19;;;28.54;47.02
4981;BME280;2507;50.392;7.482;2022-08-19T07:20:45;100609.22;;;28.50;46.95
4981;BME280;2507;50.392;7.482;2022-08-19T07:23:11;100607.63;;;28.24;47.56
4981;BME280;2507;50.392;7.482;2022-08-19T07:25:37;100597.97;;;28.35;47.09
4981;BME280;2507;50.392;7.482;2022-08-19T07:28:03;100609.50;;;27.74;48.72
4981;BME280;2507;50.392;7.482;2022-08-19T07:30:29;100604.25;;;27.23;49.90
4981;BME280;2507;50.392;7.482;2022-08-19T07:32:54;100609.91;;;27.47;49.42
4981;BME280;2507;50.392;7.482;2022-08-19T07:35:21;100613.25;;;28.41;47.79
4981;BME280;2507;50.392;7.482;2022-08-19T07:37:46;100618.84;;;29.00;46.09
4981;BME280;2507;50.392;7.482;2022-08-19T07:40:12;100612.88;;;29.09;46.12
4981;BME280;2507;50.392;7.482;2022-08-19T07:42:38;100612.84;;;28.98;46.07
4981;BME280;2507;50.392;7.482;2022-08-19T07:45:04;100615.00;;;28.89;46.08
4981;BME280;2507;50.392;7.482;2022-08-19T07:47:30;100610.31;;;29.44;45.40
4981;BME280;2507;50.392;7.482;2022-08-19T07:49:55;100614.94;;;29.44;44.96
4981;BME280;2507;50.392;7.482;2022-08-19T07:52:21;100610.44;;;29.38;45.28
4981;BME280;2507;50.392;7.482;2022-08-19T07:54:47;100611.69;;;29.24;45.33
4981;BME280;2507;50.392;7.482;2022-08-19T07:57:12;100616.56;;;29.97;43.98
4981;BME280;2507;50.392;7.482;2022-08-19T07:59:38;100606.56;;;29.45;44.85
4981;BME280;2507;50.392;7.482;2022-08-19T08:02:04;100608.66;;;29.84;44.09
4981;BME280;2507;50.392;7.482;2022-08-19T08:04:30;100611.03;;;30.39;43.02
4981;BME280;2507;50.392;7.482;2022-08-19T08:07:14;100609.13;;;30.85;42.16
4981;BME280;2507;50.392;7.482;2022-08-19T08:09:58;100606.19;;;31.43;40.70
4981;BME280;2507;50.392;7.482;2022-08-19T08:12:29;100594.00;;;31.62;39.91
4981;BME280;2507;50.392;7.482;2022-08-19T08:14:58;100598.88;;;30.64;41.78
4981;BME280;2507;50.392;7.482;2022-08-19T08:17:27;100591.59;;;31.33;40.46
4981;BME280;2507;50.392;7.482;2022-08-19T08:19:53;100591.06;;;32.52;38.98
4981;BME280;2507;50.392;7.482;2022-08-19T08:22:19;100598.22;;;32.79;38.01
4981;BME280;2507;50.392;7.482;2022-08-19T08:25:07;100598.09;;;32.69;37.86
4981;BME280;2507;50.392;7.482;2022-08-19T08:27:36;100593.31;;;33.25;37.05
4981;BME280;2507;50.392;7.482;2022-08-19T08:30:11;100595.19;;;32.97;37.06
4981;BME280;2507;50.392;7.482;2022-08-19T08:32:38;100593.09;;;31.73;38.34
4981;BME280;2507;50.392;7.482;2022-08-19T08:35:05;100601.06;;;31.19;40.07
4981;BME280;2507;50.392;7.482;2022-08-19T08:37:31;100592.13;;;30.27;41.93
4981;BME280;2507;50.392;7.482;2022-08-19T08:39:56;100594.97;;;29.68;42.05
4981;BME280;2507;50.392;7.482;2022-08-19T08:42:32;100587.19;;;29.00;43.85
4981;BME280;2507;50.392;7.482;2022-08-19T08:45:03;100597.06;;;28.77;44.57
4981;BME280;2507;50.392;7.482;2022-08-19T08:47:35;100594.75;;;28.62;44.23
4981;BME280;2507;50.392;7.482;2022-08-19T08:50:19;100596.47;;;28.75;44.43
4981;BME280;2507;50.392;7.482;2022-08-19T08:52:52;100594.91;;;29.45;42.30
4981;BME280;2507;50.392;7.482;2022-08-19T08:55:24;100591.09;;;29.04;42.62
4981;BME280;2507;50.392;7.482;2022-08-19T08:58:03;100586.16;;;29.01;42.83
4981;BME280;2507;50.392;7.482;2022-08-19T09:00:35;100594.31;;;28.65;43.00
4981;BME280;2507;50.392;7.482;2022-08-19T09:03:02;100583.63;;;28.16;44.56
4981;BME280;2507;50.392;7.482;2022-08-19T09:05:57;100591.94;;;28.14;44.35
4981;BME280;2507;50.392;7.482;2022-08-19T09:08:36;100583.63;;;27.67;45.37
4981;BME280;2507;50.392;7.482;2022-08-19T09:11:07;100587.22;;;28.10;44.30
4981;BME280;2507;50.392;7.482;2022-08-19T09:13:41;100585.38;;;28.04;43.98
4981;BME280;2507;50.392;7.482;2022-08-19T09:16:14;100581.69;;;27.74;44.54
4981;BME280;2507;50.392;7.482;2022-08-19T09:18:50;100581.34;;;27.64;44.50
4981;BME280;2507;50.392;7.482;2022-08-19T09:21:19;100580.97;;;27.85;43.66
4981;BME280;2507;50.392;7.482;2022-08-19T09:23:45;100576.56;;;27.90;43.59
4981;BME280;2507;50.392;7.482;2022-08-19T09:26:13;100580.09;;;27.91;43.80
4981;BME280;2507;50.392;7.482;2022-08-19T09:28:41;100581.63;;;27.56;43.92
4981;BME280;2507;50.392;7.482;2022-08-19T09:31:14;100583.94;;;27.77;44.03
4981;BME280;2507;50.392;7.482;2022-08-19T09:33:40;100581.75;;;27.92;44.39
4981;BME280;2507;50.392;7.482;2022-08-19T09:36:10;100574.75;;;27.84;43.55
4981;BME280;2507;50.392;7.482;2022-08-19T09:38:36;100572.94;;;27.78;43.84
4981;BME280;2507;50.392;7.482;2022-08-19T09:41:07;100564.84;;;27.78;43.75
4981;BME280;2507;50.392;7.482;2022-08-19T09:43:33;100573.50;;;27.87;44.04
4981;BME280;2507;50.392;7.482;2022-08-19T09:46:04;100577.19;;;27.37;45.63
4981;BME280;2507;50.392;7.482;2022-08-19T09:48:32;100575.16;;;26.94;46.52
4981;BME280;2507;50.392;7.482;2022-08-19T09:51:09;100578.28;;;26.91;46.36
4981;BME280;2507;50.392;7.482;2022-08-19T09:53:35;100580.00;;;26.79;47.04
4981;BME280;2507;50.392;7.482;2022-08-19T09:56:01;100571.47;;;26.82;46.26
4981;BME280;2507;50.392;7.482;2022-08-19T09:58:27;100567.13;;;27.19;46.07
4981;BME280;2507;50.392;7.482;2022-08-19T10:00:55;100569.13;;;27.30;45.79
4981;BME280;2507;50.392;7.482;2022-08-19T10:03:21;100567.59;;;27.47;45.66
4981;BME280;2507;50.392;7.482;2022-08-19T10:05:46;100575.59;;;27.29;45.34
4981;BME280;2507;50.392;7.482;2022-08-19T10:08:17;100567.81;;;27.14;46.17
4981;BME280;2507;50.392;7.482;2022-08-19T10:10:44;100573.22;;;27.08;45.84
4981;BME280;2507;50.392;7.482;2022-08-19T10:13:10;100563.00;;;27.16;45.47
4981;BME280;2507;50.392;7.482;2022-08-19T10:15:36;100568.38;;;27.16;45.12
4981;BME280;2507;50.392;7.482;2022-08-19T10:18:05;100574.59;;;27.17;45.39
4981;BME280;2507;50.392;7.482;2022-08-19T10:20:30;100565.44;;;27.24;44.78
4981;BME280;2507;50.392;7.482;2022-08-19T10:22:55;100574.41;;;27.50;44.67
4981;BME280;2507;50.392;7.482;2022-08-19T10:25:21;100565.16;;;27.64;44.32
4981;BME280;2507;50.392;7.482;2022-08-19T10:27:46;100565.66;;;27.79;44.27
4981;BME280;2507;50.392;7.482;2022-08-19T10:30:12;100563.00;;;28.03;43.97
4981;BME280;2507;50.392;7.482;2022-08-19T10:32:37;100550.75;;;28.01;43.95
4981;BME280;2507;50.392;7.482;2022-08-19T10:35:03;100552.47;;;27.95;44.20
4981;BME280;2507;50.392;7.482;2022-08-19T10:37:34;100554.53;;;28.00;43.65
4981;BME280;2507;50.392;7.482;2022-08-19T10:39:59;100553.16;;;27.84;44.16
4981;BME280;2507;50.392;7.482;2022-08-19T10:42:24;100554.22;;;28.08;43.66
4981;BME280;2507;50.392;7.482;2022-08-19T10:44:50;100552.06;;;28.35;42.60
4981;BME280;2507;50.392;7.482;2022-08-19T10:47:15;100547.41;;;28.05;42.99
4981;BME280;2507;50.392;7.482;2022-08-19T10:49:40;100544.16;;;28.33;42.47
4981;BME280;2507;50.392;7.482;2022-08-19T10:52:25;100531.94;;;28.67;41.82
4981;BME280;2507;50.392;7.482;2022-08-19T10:55:04;100533.06;;;29.07;41.08
4981;BME280;2507;50.392;7.482;2022-08-19T10:57:48;100535.38;;;29.22;40.85
4981;BME280;2507;50.392;7.482;2022-08-19T11:00:13;100530.31;;;29.25;41.57
4981;BME280;2507;50.392;7.482;2022-08-19T11:02:39;100524.19;;;29.30;40.02
4981;BME280;2507;50.392;7.482;2022-08-19T11:05:05;100533.53;;;29.45;39.68
4981;BME280;2507;50.392;7.482;2022-08-19T11:07:31;100529.81;;;29.69;39.42
4981;BME280;2507;50.392;7.482;2022-08-19T11:09:57;100536.81;;;29.36;39.53
4981;BME280;2507;50.392;7.482;2022-08-19T11:12:22;100541.41;;;28.76;40.42
4981;BME280;2507;50.392;7.482;2022-08-19T11:14:48;100538.84;;;28.45;41.34
4981;BME280;2507;50.392;7.482;2022-08-19T11:17:14;100527.91;;;28.22;42.37
4981;BME280;2507;50.392;7.482;2022-08-19T11:19:40;100535.09;;;28.46;40.90
4981;BME280;2507;50.392;7.482;2022-08-19T11:22:08;100516.19;;;28.64;38.32
4981;BME280;2507;50.392;7.482;2022-08-19T11:24:35;100515.09;;;28.83;37.93
4981;BME280;2507;50.392;7.482;2022-08-19T11:27:06;100513.50;;;28.93;37.63
4981;BME280;2507;50.392;7.482;2022-08-19T11:29:34;100510.16;;;28.80;38.77
4981;BME280;2507;50.392;7.482;2022-08-19T11:32:06;100506.75;;;28.84;39.02
4981;BME280;2507;50.392;7.482;2022-08-19T11:34:32;100505.91;;;28.72;39.75
4981;BME280;2507;50.392;7.482;2022-08-19T11:36:57;100500.38;;;28.67;39.63
4981;BME280;2507;50.392;7.482;2022-08-19T11:39:25;100487.63;;;28.56;40.08
4981;BME280;2507;50.392;7.482;2022-08-19T11:41:51;100501.88;;;28.45;40.91
4981;BME280;2507;50.392;7.482;2022-08-19T11:44:17;100496.09;;;28.60;40.23
4981;BME280;2507;50.392;7.482;2022-08-19T11:46:43;100494.31;;;28.54;40.18
4981;BME280;2507;50.392;7.482;2022-08-19T11:49:14;100480.06;;;28.29;39.99
4981;BME280;2507;50.392;7.482;2022-08-19T11:51:40;100493.59;;;28.40;40.34
4981;BME280;2507;50.392;7.482;2022-08-19T11:54:07;100501.06;;;28.27;39.79
4981;BME280;2507;50.392;7.482;2022-08-19T11:56:33;100483.75;;;28.46;40.24
4981;BME280;2507;50.392;7.482;2022-08-19T11:59:00;100474.78;;;28.81;40.18
4981;BME280;2507;50.392;7.482;2022-08-19T12:01:27;100482.59;;;28.60;39.96
4981;BME280;2507;50.392;7.482;2022-08-19T12:03:54;100472.75;;;28.47;39.39
4981;BME280;2507;50.392;7.482;2022-08-19T12:06:26;100478.53;;;28.51;39.07
4981;BME280;2507;50.392;7.482;2022-08-19T12:08:54;100481.91;;;28.46;39.22
4981;BME280;2507;50.392;7.482;2022-08-19T12:11:20;100491.19;;;28.68;39.29
4981;BME280;2507;50.392;7.482;2022-08-19T12:13:45;100485.84;;;28.91;38.95
4981;BME280;2507;50.392;7.482;2022-08-19T12:16:18;100491.31;;;29.03;38.20
4981;BME280;2507;50.392;7.482;2022-08-19T12:18:44;100482.19;;;28.86;38.53
4981;BME280;2507;50.392;7.482;2022-08-19T12:21:14;100486.03;;;28.96;38.92
4981;BME280;2507;50.392;7.482;2022-08-19T12:23:40;100488.38;;;29.04;38.61
4981;BME280;2507;50.392;7.482;2022-08-19T12:26:06;100479.78;;;29.07;37.76
4981;BME280;2507;50.392;7.482;2022-08-19T12:28:31;100471.28;;;29.34;37.95
4981;BME280;2507;50.392;7.482;2022-08-19T12:30:57;100469.78;;;29.61;37.16
4981;BME280;2507;50.392;7.482;2022-08-19T12:33:22;100462.97;;;29.70;36.82
4981;BME280;2507;50.392;7.482;2022-08-19T12:35:50;100474.81;;;29.34;37.36
4981;BME280;2507;50.392;7.482;2022-08-19T12:38:16;100465.88;;;29.34;37.60
4981;BME280;2507;50.392;7.482;2022-08-19T12:40:41;100458.94;;;29.38;37.18
4981;BME280;2507;50.392;7.482;2022-08-19T12:43:10;100468.00;;;29.20;37.84
4981;BME280;2507;50.392;7.482;2022-08-19T12:45:36;100479.22;;;29.05;37.64
4981;BME280;2507;50.392;7.482;2022-08-19T12:48:02;100463.91;;;28.99;37.97
4981;BME280;2507;50.392;7.482;2022-08-19T12:50:28;100460.56;;;29.15;37.58
4981;BME280;2507;50.392;7.482;2022-08-19T12:52:53;100460.13;;;29.42;37.11
4981;BME280;2507;50.392;7.482;2022-08-19T12:55:18;100437.78;;;29.58;37.22
4981;BME280;2507;50.392;7.482;2022-08-19T12:57:44;100447.88;;;29.62;37.51
4981;BME280;2507;50.392;7.482;2022-08-19T13:00:13;100451.66;;;29.38;38.08
4981;BME280;2507;50.392;7.482;2022-08-19T13:02:40;100450.38;;;29.29;38.17
4981;BME280;2507;50.392;7.482;2022-08-19T13:05:08;100439.06;;;29.32;38.06
4981;BME280;2507;50.392;7.482;2022-08-19T13:07:33;100449.53;;;29.52;37.11
4981;BME280;2507;50.392;7.482;2022-08-19T13:10:00;100441.78;;;29.55;36.97
4981;BME280;2507;50.392;7.482;2022-08-19T13:12:25;100427.88;;;29.40;37.07